Airfield :
LOGIN :

Register | Disclaimer

   EN    FR    IT 

 










Legend :    VFR   Marginal VFR   IFR   Intensive IFR   Very Intensive IFR
Visi :
Ceiling :
>= 8 km
>= 3000ft
5 to 8 km
1000 to 3000 ft
1500m to 5 km
500 to 1000 ft
800 to 1500m
200 to 500 ft
< 800m
< 200 ft
Symbols :   Thunderstorms  Fog  Heavy snow  Heavy precipitations  Wind > 20 kt
SIGMETs :     Misc.  Thunderstorms  Icing  Turbulence  Mountain Waves  Volcanic Ashes






- Airport Elevation : 436 ft
- IATA code : ANG


LFBU - Angoulême Brie Champniers

CURRENT METAR :
  • 201330Z AUTO 03009KT 9999 SCT013 OVC021 07/04 Q1031 TEMPO BKN005

EXPIRED METARs :
  • 201300Z AUTO 03008KT 9999 SCT008 OVC019 06/05 Q1031 TEMPO BKN005
  • 201230Z AUTO 03007KT 360V060 9999 OVC006 06/05 Q1032 NOSIG
  • 201200Z AUTO 03005KT 360V060 6000 OVC004 05/05 Q1032 TEMPO BKN005
  • 201130Z AUTO 02004KT 350V050 7000 OVC005 05/04 Q1032 TEMPO 2000 BR
  • 201100Z AUTO 02004KT 350V060 8000 OVC006 05/04 Q1033 TEMPO 2000 BR OVC004

TAF TAF LFBU
Valid from the 20 at 12:00 until the 21 at 12:00 UTC


201100Z 2012/2112 03010KT 8000 OVC015
TEMPO 2012/2013 OVC005
BECMG 2013/2015 CAVOK
PROB40
TEMPO 2013/2018 BKN005
BECMG 2018/2020 CAVOK
BECMG 2101/2103 BKN008
BECMG 2109/2111 BKN015



MET'MAP, your aeronautical weather chart ! - Copyright ORBIFLY December 2007 - Disclaimer

ORBIFLY MET'MAP TEAM :

Programming & Development : Alexandra Zaïnal
Concept & original design : Baudouin d'Aumeries
Assistance for programming : Marc-Olivier Méhu
Technical & hardware support : Manuel Goepfert

Contact : metmap@orbifly.com




SOURCES & CREDITS :

   NOAA